sensor_id;sensor_type;location;lat;lon;timestamp;pressure;altitude;pressure_sealevel;temperature;humidity
73910;BME280;62245;48.070;7.874;2024-03-07T00:01:58;99579.34;;;7.11;95.53
73910;BME280;62245;48.070;7.874;2024-03-07T00:04:23;99570.28;;;7.05;95.45
73910;BME280;62245;48.070;7.874;2024-03-07T00:06:50;99577.69;;;7.10;95.90
73910;BME280;62245;48.070;7.874;2024-03-07T00:09:15;99575.88;;;7.10;95.39
73910;BME280;62245;48.070;7.874;2024-03-07T00:11:41;99577.34;;;7.13;95.54
73910;BME280;62245;48.070;7.874;2024-03-07T00:14:06;99571.38;;;7.11;95.69
73910;BME280;62245;48.070;7.874;2024-03-07T00:16:33;99566.25;;;7.09;95.39
73910;BME280;62245;48.070;7.874;2024-03-07T00:18:59;99562.16;;;7.07;95.66
73910;BME280;62245;48.070;7.874;2024-03-07T00:21:25;99572.38;;;7.10;95.42
73910;BME280;62245;48.070;7.874;2024-03-07T00:23:51;99572.59;;;7.08;95.02
73910;BME280;62245;48.070;7.874;2024-03-07T00:26:16;99569.28;;;7.06;95.03
73910;BME280;62245;48.070;7.874;2024-03-07T00:28:41;99570.09;;;7.07;95.01
73910;BME280;62245;48.070;7.874;2024-03-07T00:31:07;99565.78;;;7.06;94.89
73910;BME280;62245;48.070;7.874;2024-03-07T00:33:34;99565.13;;;7.04;95.25
73910;BME280;62245;48.070;7.874;2024-03-07T00:35:59;99562.19;;;6.99;95.27
73910;BME280;62245;48.070;7.874;2024-03-07T00:38:25;99559.16;;;7.02;95.58
73910;BME280;62245;48.070;7.874;2024-03-07T00:40:50;99548.25;;;6.97;95.46
73910;BME280;62245;48.070;7.874;2024-03-07T00:43:16;99563.03;;;6.99;95.95
73910;BME280;62245;48.070;7.874;2024-03-07T00:45:41;99562.81;;;7.01;95.74
73910;BME280;62245;48.070;7.874;2024-03-07T00:48:06;99566.31;;;7.01;95.84
73910;BME280;62245;48.070;7.874;2024-03-07T00:50:32;99561.19;;;7.00;95.69
73910;BME280;62245;48.070;7.874;2024-03-07T00:52:57;99559.38;;;7.00;95.33
73910;BME280;62245;48.070;7.874;2024-03-07T00:55:22;99561.00;;;7.01;95.57
73910;BME280;62245;48.070;7.874;2024-03-07T00:57:48;99544.63;;;6.98;95.66
73910;BME280;62245;48.070;7.874;2024-03-07T04:00:24;99384.69;;;6.35;97.61
73910;BME280;62245;48.070;7.874;2024-03-07T04:02:49;99367.13;;;6.34;97.44
73910;BME280;62245;48.070;7.874;2024-03-07T04:05:16;99372.63;;;6.33;97.54
73910;BME280;62245;48.070;7.874;2024-03-07T04:07:42;99375.25;;;6.33;97.53
73910;BME280;62245;48.070;7.874;2024-03-07T04:10:09;99368.31;;;6.32;97.37
73910;BME280;62245;48.070;7.874;2024-03-07T04:12:35;99375.78;;;6.28;97.51
73910;BME280;62245;48.070;7.874;2024-03-07T04:15:03;99379.31;;;6.21;97.49
73910;BME280;62245;48.070;7.874;2024-03-07T04:17:29;99369.09;;;6.10;98.30
73910;BME280;62245;48.070;7.874;2024-03-07T04:19:54;99384.28;;;6.16;98.22
73910;BME280;62245;48.070;7.874;2024-03-07T04:22:19;99376.38;;;6.07;98.99
73910;BME280;62245;48.070;7.874;2024-03-07T04:24:45;99378.28;;;5.91;97.82
73910;BME280;62245;48.070;7.874;2024-03-07T04:27:11;99376.94;;;5.87;97.49
73910;BME280;62245;48.070;7.874;2024-03-07T04:29:36;99382.56;;;5.92;97.26
73910;BME280;62245;48.070;7.874;2024-03-07T04:32:02;99376.28;;;5.85;97.40
73910;BME280;62245;48.070;7.874;2024-03-07T04:34:29;99371.81;;;5.85;97.66
73910;BME280;62245;48.070;7.874;2024-03-07T04:36:58;99374.78;;;5.90;97.28
73910;BME280;62245;48.070;7.874;2024-03-07T04:39:24;99373.47;;;5.86;96.96
73910;BME280;62245;48.070;7.874;2024-03-07T04:42:01;99374.47;;;5.85;97.13
73910;BME280;62245;48.070;7.874;2024-03-07T04:44:27;99365.88;;;5.75;97.05
73910;BME280;62245;48.070;7.874;2024-03-07T04:46:52;99365.25;;;5.65;97.21
73910;BME280;62245;48.070;7.874;2024-03-07T04:49:25;99368.56;;;5.67;96.89
73910;BME280;62245;48.070;7.874;2024-03-07T04:51:52;99369.88;;;5.63;96.16
73910;BME280;62245;48.070;7.874;2024-03-07T04:54:18;99369.56;;;5.58;96.02
73910;BME280;62245;48.070;7.874;2024-03-07T04:56:45;99366.09;;;5.57;95.72
73910;BME280;62245;48.070;7.874;2024-03-07T04:59:10;99377.22;;;5.53;95.75
73910;BME280;62245;48.070;7.874;2024-03-07T05:01:37;99375.72;;;5.42;96.36
73910;BME280;62245;48.070;7.874;2024-03-07T05:04:02;99362.34;;;5.44;96.47
73910;BME280;62245;48.070;7.874;2024-03-07T05:06:28;99367.63;;;5.44;96.86
73910;BME280;62245;48.070;7.874;2024-03-07T05:08:54;99365.63;;;5.46;97.05
73910;BME280;62245;48.070;7.874;2024-03-07T05:11:19;99362.50;;;5.50;96.90
73910;BME280;62245;48.070;7.874;2024-03-07T05:13:44;99361.66;;;5.50;96.98
73910;BME280;62245;48.070;7.874;2024-03-07T05:16:10;99364.97;;;5.52;98.50
73910;BME280;62245;48.070;7.874;2024-03-07T05:18:35;99356.38;;;5.42;99.62
73910;BME280;62245;48.070;7.874;2024-03-07T05:21:00;99357.88;;;5.28;100.00
73910;BME280;62245;48.070;7.874;2024-03-07T05:23:45;99365.97;;;5.43;100.00
73910;BME280;62245;48.070;7.874;2024-03-07T05:26:11;99369.44;;;5.43;100.00
73910;BME280;62245;48.070;7.874;2024-03-07T05:28:36;99358.88;;;5.43;100.00
73910;BME280;62245;48.070;7.874;2024-03-07T05:31:01;99363.69;;;5.31;100.00
73910;BME280;62245;48.070;7.874;2024-03-07T05:33:29;99348.13;;;5.28;100.00
73910;BME280;62245;48.070;7.874;2024-03-07T05:35:54;99365.66;;;5.29;100.00
73910;BME280;62245;48.070;7.874;2024-03-07T05:38:27;99364.38;;;5.09;100.00
73910;BME280;62245;48.070;7.874;2024-03-07T05:40:53;99361.06;;;5.07;100.00
73910;BME280;62245;48.070;7.874;2024-03-07T05:43:18;99365.53;;;5.07;100.00
73910;BME280;62245;48.070;7.874;2024-03-07T05:45:44;99367.66;;;5.03;100.00
73910;BME280;62245;48.070;7.874;2024-03-07T05:48:14;99356.59;;;5.08;100.00
73910;BME280;62245;48.070;7.874;2024-03-07T05:50:42;99369.00;;;5.15;100.00
73910;BME280;62245;48.070;7.874;2024-03-07T05:53:07;99360.38;;;5.13;100.00
73910;BME280;62245;48.070;7.874;2024-03-07T05:55:33;99364.69;;;5.14;100.00
73910;BME280;62245;48.070;7.874;2024-03-07T05:57:58;99365.19;;;5.18;100.00
73910;BME280;62245;48.070;7.874;2024-03-07T06:00:23;99365.34;;;5.16;100.00
73910;BME280;62245;48.070;7.874;2024-03-07T06:02:52;99364.84;;;5.13;100.00
73910;BME280;62245;48.070;7.874;2024-03-07T06:05:18;99366.16;;;5.25;100.00
73910;BME280;62245;48.070;7.874;2024-03-07T06:07:44;99362.19;;;5.29;100.00
73910;BME280;62245;48.070;7.874;2024-03-07T06:10:12;99367.66;;;5.27;100.00
73910;BME280;62245;48.070;7.874;2024-03-07T06:12:37;99369.66;;;5.25;100.00
73910;BME280;62245;48.070;7.874;2024-03-07T06:15:06;99375.94;;;5.24;100.00
73910;BME280;62245;48.070;7.874;2024-03-07T06:17:31;99369.63;;;5.34;100.00
73910;BME280;62245;48.070;7.874;2024-03-07T06:19:56;99374.41;;;5.38;99.98
73910;BME280;62245;48.070;7.874;2024-03-07T06:22:21;99372.13;;;5.27;100.00
73910;BME280;62245;48.070;7.874;2024-03-07T06:24:47;99372.97;;;5.27;100.00
73910;BME280;62245;48.070;7.874;2024-03-07T06:27:12;99371.78;;;5.22;100.00
73910;BME280;62245;48.070;7.874;2024-03-07T06:30:02;99375.59;;;5.27;100.00
73910;BME280;62245;48.070;7.874;2024-03-07T06:32:28;99366.00;;;5.26;100.00
73910;BME280;62245;48.070;7.874;2024-03-07T06:34:53;99370.78;;;5.39;100.00
73910;BME280;62245;48.070;7.874;2024-03-07T06:37:18;99367.66;;;5.36;100.00
73910;BME280;62245;48.070;7.874;2024-03-07T06:39:44;99359.41;;;5.14;100.00
73910;BME280;62245;48.070;7.874;2024-03-07T06:42:09;99368.16;;;5.15;99.48
73910;BME280;62245;48.070;7.874;2024-03-07T06:44:34;99373.28;;;5.16;98.45
73910;BME280;62245;48.070;7.874;2024-03-07T06:46:59;99371.47;;;5.17;98.86
73910;BME280;62245;48.070;7.874;2024-03-07T06:49:25;99376.75;;;5.25;99.01
73910;BME280;62245;48.070;7.874;2024-03-07T06:51:50;99386.19;;;5.36;99.06
73910;BME280;62245;48.070;7.874;2024-03-07T06:54:15;99379.69;;;5.38;97.16
73910;BME280;62245;48.070;7.874;2024-03-07T06:56:40;99376.03;;;5.47;97.30
73910;BME280;62245;48.070;7.874;2024-03-07T06:59:08;99380.50;;;5.47;97.35
73910;BME280;62245;48.070;7.874;2024-03-07T07:01:34;99388.78;;;5.52;98.12
73910;BME280;62245;48.070;7.874;2024-03-07T07:03:59;99390.78;;;5.42;98.43
73910;BME280;62245;48.070;7.874;2024-03-07T07:06:28;99388.47;;;5.30;100.00
73910;BME280;62245;48.070;7.874;2024-03-07T07:08:53;99389.63;;;5.28;100.00
73910;BME280;62245;48.070;7.874;2024-03-07T07:11:18;99389.81;;;5.35;100.00
73910;BME280;62245;48.070;7.874;2024-03-07T07:13:44;99387.47;;;5.31;100.00
73910;BME280;62245;48.070;7.874;2024-03-07T07:16:11;99384.69;;;5.33;100.00
73910;BME280;62245;48.070;7.874;2024-03-07T07:18:37;99380.19;;;5.42;100.00
73910;BME280;62245;48.070;7.874;2024-03-07T07:21:03;99380.88;;;5.44;100.00
73910;BME280;62245;48.070;7.874;2024-03-07T07:23:29;99372.94;;;5.44;100.00
73910;BME280;62245;48.070;7.874;2024-03-07T07:25:54;99381.69;;;5.44;100.00
73910;BME280;62245;48.070;7.874;2024-03-07T07:28:20;99368.94;;;5.48;100.00
73910;BME280;62245;48.070;7.874;2024-03-07T07:30:45;99379.53;;;5.48;100.00
73910;BME280;62245;48.070;7.874;2024-03-07T07:33:11;99375.19;;;5.55;100.00
73910;BME280;62245;48.070;7.874;2024-03-07T07:35:37;99375.19;;;5.55;100.00
73910;BME280;62245;48.070;7.874;2024-03-07T07:38:02;99378.47;;;5.65;100.00
73910;BME280;62245;48.070;7.874;2024-03-07T07:40:27;99374.16;;;5.72;100.00
73910;BME280;62245;48.070;7.874;2024-03-07T07:42:53;99374.72;;;5.59;100.00
73910;BME280;62245;48.070;7.874;2024-03-07T07:45:20;99366.25;;;5.64;100.00
73910;BME280;62245;48.070;7.874;2024-03-07T07:47:48;99369.88;;;5.79;100.00
73910;BME280;62245;48.070;7.874;2024-03-07T07:50:15;99370.69;;;5.88;100.00
73910;BME280;62245;48.070;7.874;2024-03-07T07:52:55;99367.50;;;5.92;100.00
73910;BME280;62245;48.070;7.874;2024-03-07T07:55:22;99366.69;;;5.92;99.94
73910;BME280;62245;48.070;7.874;2024-03-07T07:57:50;99367.00;;;5.89;100.00
73910;BME280;62245;48.070;7.874;2024-03-07T08:00:20;99365.19;;;5.89;100.00
73910;BME280;62245;48.070;7.874;2024-03-07T08:02:55;99374.84;;;5.66;100.00
73910;BME280;62245;48.070;7.874;2024-03-07T08:05:26;99364.56;;;5.79;100.00
73910;BME280;62245;48.070;7.874;2024-03-07T08:07:53;99357.91;;;5.91;99.75
73910;BME280;62245;48.070;7.874;2024-03-07T08:10:20;99357.88;;;5.99;99.39
73910;BME280;62245;48.070;7.874;2024-03-07T08:12:45;99354.59;;;5.89;100.00
73910;BME280;62245;48.070;7.874;2024-03-07T08:15:14;99346.00;;;5.87;100.00
73910;BME280;62245;48.070;7.874;2024-03-07T08:17:44;99342.34;;;5.96;100.00
73910;BME280;62245;48.070;7.874;2024-03-07T08:20:16;99343.63;;;6.00;100.00
73910;BME280;62245;48.070;7.874;2024-03-07T08:22:44;99346.00;;;5.95;100.00
73910;BME280;62245;48.070;7.874;2024-03-07T08:25:10;99341.38;;;5.89;100.00
73910;BME280;62245;48.070;7.874;2024-03-07T08:27:37;99348.94;;;6.00;100.00
73910;BME280;62245;48.070;7.874;2024-03-07T08:30:04;99333.16;;;6.07;100.00
73910;BME280;62245;48.070;7.874;2024-03-07T08:32:34;99347.16;;;6.24;100.00
73910;BME280;62245;48.070;7.874;2024-03-07T08:35:04;99344.47;;;6.32;99.90
73910;BME280;62245;48.070;7.874;2024-03-07T08:37:52;99337.81;;;6.36;99.36
73910;BME280;62245;48.070;7.874;2024-03-07T08:40:24;99340.31;;;6.37;99.42
73910;BME280;62245;48.070;7.874;2024-03-07T08:42:51;99334.47;;;6.42;98.71
73910;BME280;62245;48.070;7.874;2024-03-07T08:45:19;99338.75;;;6.43;97.64
73910;BME280;62245;48.070;7.874;2024-03-07T08:47:46;99320.28;;;6.35;96.88
73910;BME280;62245;48.070;7.874;2024-03-07T08:50:12;99335.41;;;6.49;97.23
73910;BME280;62245;48.070;7.874;2024-03-07T08:52:39;99331.69;;;6.58;97.17
73910;BME280;62245;48.070;7.874;2024-03-07T08:55:24;99335.25;;;6.73;96.93
73910;BME280;62245;48.070;7.874;2024-03-07T08:57:50;99334.28;;;6.89;96.84
73910;BME280;62245;48.070;7.874;2024-03-07T09:00:17;99336.88;;;6.97;96.72
73910;BME280;62245;48.070;7.874;2024-03-07T09:02:56;99330.09;;;6.95;96.61
73910;BME280;62245;48.070;7.874;2024-03-07T09:05:25;99335.72;;;7.14;95.51
73910;BME280;62245;48.070;7.874;2024-03-07T09:07:52;99333.69;;;7.02;95.50
73910;BME280;62245;48.070;7.874;2024-03-07T09:10:17;99332.97;;;7.08;95.76
73910;BME280;62245;48.070;7.874;2024-03-07T09:12:43;99334.25;;;7.12;94.86
73910;BME280;62245;48.070;7.874;2024-03-07T09:15:09;99334.16;;;7.05;95.03
73910;BME280;62245;48.070;7.874;2024-03-07T09:17:36;99330.03;;;7.03;95.66
73910;BME280;62245;48.070;7.874;2024-03-07T09:20:02;99328.63;;;6.92;96.37
73910;BME280;62245;48.070;7.874;2024-03-07T09:22:30;99322.44;;;7.00;96.03
73910;BME280;62245;48.070;7.874;2024-03-07T09:24:56;99327.47;;;7.09;96.18
73910;BME280;62245;48.070;7.874;2024-03-07T09:27:22;99315.03;;;7.10;95.83
73910;BME280;62245;48.070;7.874;2024-03-07T09:29:47;99320.16;;;7.11;95.15
73910;BME280;62245;48.070;7.874;2024-03-07T09:32:13;99325.53;;;7.03;94.59
73910;BME280;62245;48.070;7.874;2024-03-07T09:34:38;99324.44;;;6.98;94.80
73910;BME280;62245;48.070;7.874;2024-03-07T09:37:03;99316.66;;;6.96;96.36
73910;BME280;62245;48.070;7.874;2024-03-07T09:39:29;99324.13;;;6.93;97.12
73910;BME280;62245;48.070;7.874;2024-03-07T09:41:57;99323.72;;;7.04;96.93
73910;BME280;62245;48.070;7.874;2024-03-07T09:44:24;99326.47;;;7.10;96.42
73910;BME280;62245;48.070;7.874;2024-03-07T09:46:54;99322.28;;;7.16;96.23
73910;BME280;62245;48.070;7.874;2024-03-07T09:49:20;99322.13;;;7.17;95.44
73910;BME280;62245;48.070;7.874;2024-03-07T09:51:47;99320.81;;;7.13;93.82
73910;BME280;62245;48.070;7.874;2024-03-07T09:54:12;99325.63;;;7.10;94.35
73910;BME280;62245;48.070;7.874;2024-03-07T09:56:40;99315.59;;;7.20;94.69
73910;BME280;62245;48.070;7.874;2024-03-07T09:59:11;99315.84;;;6.96;93.84
73910;BME280;62245;48.070;7.874;2024-03-07T10:01:41;99312.75;;;7.07;94.08
73910;BME280;62245;48.070;7.874;2024-03-07T10:04:12;99318.91;;;7.22;94.27
73910;BME280;62245;48.070;7.874;2024-03-07T10:06:40;99308.75;;;7.26;93.80
73910;BME280;62245;48.070;7.874;2024-03-07T10:09:06;99313.91;;;7.42;93.25
73910;BME280;62245;48.070;7.874;2024-03-07T10:11:32;99302.19;;;7.51;92.56
73910;BME280;62245;48.070;7.874;2024-03-07T10:13:58;99309.75;;;7.83;92.04
73910;BME280;62245;48.070;7.874;2024-03-07T10:16:24;99296.34;;;8.42;90.53
73910;BME280;62245;48.070;7.874;2024-03-07T10:18:49;99295.19;;;9.22;86.03
73910;BME280;62245;48.070;7.874;2024-03-07T10:21:19;99290.66;;;9.91;81.61
73910;BME280;62245;48.070;7.874;2024-03-07T10:23:44;99286.09;;;9.44;81.61
73910;BME280;62245;48.070;7.874;2024-03-07T10:26:10;99291.41;;;9.09;84.76
73910;BME280;62245;48.070;7.874;2024-03-07T10:28:35;99281.19;;;8.85;85.53
73910;BME280;62245;48.070;7.874;2024-03-07T10:31:02;99296.41;;;8.49;88.52
73910;BME280;62245;48.070;7.874;2024-03-07T10:33:28;99294.28;;;8.38;88.65
73910;BME280;62245;48.070;7.874;2024-03-07T10:35:58;99286.91;;;8.40;89.87
73910;BME280;62245;48.070;7.874;2024-03-07T10:38:23;99290.09;;;8.50;90.39
73910;BME280;62245;48.070;7.874;2024-03-07T10:40:53;99283.94;;;8.49;89.29
73910;BME280;62245;48.070;7.874;2024-03-07T10:43:20;99279.78;;;9.45;85.35
73910;BME280;62245;48.070;7.874;2024-03-07T10:45:47;99285.50;;;12.14;77.15
73910;BME280;62245;48.070;7.874;2024-03-07T10:48:16;99267.25;;;14.97;65.43
73910;BME280;62245;48.070;7.874;2024-03-07T10:53:31;99259.91;;;18.03;55.55
73910;BME280;62245;48.070;7.874;2024-03-07T10:58:42;99269.47;;;14.47;64.65
73910;BME280;62245;48.070;7.874;2024-03-07T11:01:14;99274.94;;;13.13;68.89
73910;BME280;62245;48.070;7.874;2024-03-07T11:03:39;99262.59;;;11.86;71.70
73910;BME280;62245;48.070;7.874;2024-03-07T11:06:06;99266.03;;;11.29;74.90
73910;BME280;62245;48.070;7.874;2024-03-07T11:08:37;99272.59;;;10.47;77.97
73910;BME280;62245;48.070;7.874;2024-03-07T11:11:03;99271.78;;;11.00;76.87
73910;BME280;62245;48.070;7.874;2024-03-07T11:13:30;99264.19;;;10.50;78.87
73910;BME280;62245;48.070;7.874;2024-03-07T11:15:56;99256.16;;;11.16;77.62
73910;BME280;62245;48.070;7.874;2024-03-07T11:18:25;99265.16;;;11.48;75.88
73910;BME280;62245;48.070;7.874;2024-03-07T11:20:50;99255.66;;;11.59;74.73
73910;BME280;62245;48.070;7.874;2024-03-07T11:26:10;99249.56;;;11.39;75.08
73910;BME280;62245;48.070;7.874;2024-03-07T11:28:37;99245.78;;;11.66;74.33
73910;BME280;62245;48.070;7.874;2024-03-07T11:31:30;99238.50;;;11.93;74.63
73910;BME280;62245;48.070;7.874;2024-03-07T11:34:17;99237.25;;;12.33;74.07
73910;BME280;62245;48.070;7.874;2024-03-07T11:36:49;99234.25;;;12.48;73.31
73910;BME280;62245;48.070;7.874;2024-03-07T11:39:46;99232.81;;;12.52;72.15
73910;BME280;62245;48.070;7.874;2024-03-07T11:42:22;99224.50;;;12.60;70.22
73910;BME280;62245;48.070;7.874;2024-03-07T11:44:51;99212.84;;;12.48;71.64
73910;BME280;62245;48.070;7.874;2024-03-07T11:47:17;99203.84;;;12.42;72.43
73910;BME280;62245;48.070;7.874;2024-03-07T11:49:44;99206.94;;;12.08;72.29
73910;BME280;62245;48.070;7.874;2024-03-07T11:52:14;99209.31;;;12.23;74.01
73910;BME280;62245;48.070;7.874;2024-03-07T11:54:42;99220.06;;;12.16;73.34
73910;BME280;62245;48.070;7.874;2024-03-07T11:57:11;99212.69;;;11.60;74.29
73910;BME280;62245;48.070;7.874;2024-03-07T11:59:40;99219.19;;;11.26;75.91
73910;BME280;62245;48.070;7.874;2024-03-07T12:02:11;99213.31;;;11.62;75.55
73910;BME280;62245;48.070;7.874;2024-03-07T12:04:36;99198.66;;;11.71;73.65
73910;BME280;62245;48.070;7.874;2024-03-07T12:07:01;99196.91;;;12.35;73.28
73910;BME280;62245;48.070;7.874;2024-03-07T12:09:26;99194.88;;;12.55;70.69
73910;BME280;62245;48.070;7.874;2024-03-07T12:11:52;99192.56;;;12.02;72.83
73910;BME280;62245;48.070;7.874;2024-03-07T12:14:20;99187.72;;;12.49;71.09
73910;BME280;62245;48.070;7.874;2024-03-07T12:16:46;99178.66;;;12.75;68.61
73910;BME280;62245;48.070;7.874;2024-03-07T12:19:12;99187.03;;;12.60;69.66
73910;BME280;62245;48.070;7.874;2024-03-07T12:21:38;99183.94;;;12.32;71.80
73910;BME280;62245;48.070;7.874;2024-03-07T12:24:13;99175.22;;;12.12;71.23
73910;BME280;62245;48.070;7.874;2024-03-07T12:26:40;99181.06;;;12.33;70.64
73910;BME280;62245;48.070;7.874;2024-03-07T12:29:09;99168.38;;;12.47;69.21
73910;BME280;62245;48.070;7.874;2024-03-07T12:31:39;99171.25;;;12.52;69.24
73910;BME280;62245;48.070;7.874;2024-03-07T12:34:04;99173.44;;;12.62;69.90
73910;BME280;62245;48.070;7.874;2024-03-07T12:36:31;99176.75;;;12.57;69.14
73910;BME280;62245;48.070;7.874;2024-03-07T12:39:00;99167.97;;;12.50;67.94
73910;BME280;62245;48.070;7.874;2024-03-07T12:41:34;99161.03;;;12.42;69.09
73910;BME280;62245;48.070;7.874;2024-03-07T12:44:00;99159.78;;;12.45;68.25
73910;BME280;62245;48.070;7.874;2024-03-07T12:46:25;99162.06;;;12.41;69.01
73910;BME280;62245;48.070;7.874;2024-03-07T12:48:52;99152.94;;;12.24;68.54
73910;BME280;62245;48.070;7.874;2024-03-07T12:51:22;99158.00;;;12.07;69.64
73910;BME280;62245;48.070;7.874;2024-03-07T12:53:47;99153.50;;;11.63;71.15
73910;BME280;62245;48.070;7.874;2024-03-07T12:56:13;99155.34;;;11.63;71.02
73910;BME280;62245;48.070;7.874;2024-03-07T12:58:44;99152.75;;;11.50;70.91
73910;BME280;62245;48.070;7.874;2024-03-07T13:01:10;99147.41;;;11.43;71.80
73910;BME280;62245;48.070;7.874;2024-03-07T13:03:36;99158.19;;;11.17;72.12
73910;BME280;62245;48.070;7.874;2024-03-07T13:06:01;99154.56;;;10.98;72.83
73910;BME280;62245;48.070;7.874;2024-03-07T13:08:27;99150.03;;;10.92;73.27
73910;BME280;62245;48.070;7.874;2024-03-07T13:10:55;99148.38;;;10.91;72.76
73910;BME280;62245;48.070;7.874;2024-03-07T13:13:20;99150.47;;;10.76;73.75
73910;BME280;62245;48.070;7.874;2024-03-07T13:15:46;99158.69;;;10.74;74.06
73910;BME280;62245;48.070;7.874;2024-03-07T13:18:12;99149.66;;;10.55;74.06
73910;BME280;62245;48.070;7.874;2024-03-07T13:20:38;99151.94;;;10.52;74.19
73910;BME280;62245;48.070;7.874;2024-03-07T13:23:04;99142.50;;;10.56;73.95
73910;BME280;62245;48.070;7.874;2024-03-07T13:25:30;99145.56;;;10.59;74.97
73910;BME280;62245;48.070;7.874;2024-03-07T13:28:13;99151.13;;;10.71;72.96
73910;BME280;62245;48.070;7.874;2024-03-07T13:30:42;99142.28;;;10.64;73.33
73910;BME280;62245;48.070;7.874;2024-03-07T13:33:09;99146.19;;;10.68;73.23
73910;BME280;62245;48.070;7.874;2024-03-07T13:35:38;99142.69;;;10.68;73.31
73910;BME280;62245;48.070;7.874;2024-03-07T13:38:03;99141.28;;;10.72;74.47
73910;BME280;62245;48.070;7.874;2024-03-07T13:40:29;99135.09;;;10.71;74.26
73910;BME280;62245;48.070;7.874;2024-03-07T13:42:59;99143.50;;;10.68;73.24
73910;BME280;62245;48.070;7.874;2024-03-07T13:45:30;99130.78;;;10.57;74.25
73910;BME280;62245;48.070;7.874;2024-03-07T13:47:57;99139.63;;;10.57;75.64
73910;BME280;62245;48.070;7.874;2024-03-07T13:50:26;99141.06;;;10.53;73.65
73910;BME280;62245;48.070;7.874;2024-03-07T13:52:54;99130.19;;;10.42;72.85
73910;BME280;62245;48.070;7.874;2024-03-07T14:12:28;99116.59;;;10.04;75.21
73910;BME280;62245;48.070;7.874;2024-03-07T14:18:18;99109.44;;;9.98;74.54
73910;BME280;62245;48.070;7.874;2024-03-07T14:27:14;99106.53;;;9.86;74.82
73910;BME280;62245;48.070;7.874;2024-03-07T14:32:38;99098.97;;;9.76;74.41
73910;BME280;62245;48.070;7.874;2024-03-07T14:35:23;99104.06;;;9.71;73.76
73910;BME280;62245;48.070;7.874;2024-03-07T14:37:55;99099.38;;;9.73;74.17
73910;BME280;62245;48.070;7.874;2024-03-07T14:40:26;99093.22;;;9.66;74.69
73910;BME280;62245;48.070;7.874;2024-03-07T14:42:54;99098.94;;;9.70;75.41
73910;BME280;62245;48.070;7.874;2024-03-07T14:45:29;99095.63;;;9.61;76.18
73910;BME280;62245;48.070;7.874;2024-03-07T14:47:56;99099.31;;;9.47;76.50
73910;BME280;62245;48.070;7.874;2024-03-07T14:50:22;99091.13;;;9.49;76.33
73910;BME280;62245;48.070;7.874;2024-03-07T14:52:51;99090.06;;;9.43;76.84
73910;BME280;62245;48.070;7.874;2024-03-07T14:55:17;99089.47;;;9.48;77.53
73910;BME280;62245;48.070;7.874;2024-03-07T14:57:44;99083.31;;;9.47;75.64
73910;BME280;62245;48.070;7.874;2024-03-07T15:00:11;99091.31;;;9.47;75.75
73910;BME280;62245;48.070;7.874;2024-03-07T15:02:46;99092.78;;;9.50;75.29
73910;BME280;62245;48.070;7.874;2024-03-07T15:05:12;99091.53;;;9.52;76.35
73910;BME280;62245;48.070;7.874;2024-03-07T15:07:39;99084.16;;;9.54;76.49
73910;BME280;62245;48.070;7.874;2024-03-07T15:12:33;99086.22;;;9.59;74.48
73910;BME280;62245;48.070;7.874;2024-03-07T15:14:58;99081.31;;;9.62;74.91
73910;BME280;62245;48.070;7.874;2024-03-07T15:17:24;99091.56;;;9.65;75.11
73910;BME280;62245;48.070;7.874;2024-03-07T15:19:49;99083.97;;;9.62;75.71
73910;BME280;62245;48.070;7.874;2024-03-07T15:22:15;99081.94;;;9.71;75.34
73910;BME280;62245;48.070;7.874;2024-03-07T15:24:45;99083.75;;;9.57;75.25
73910;BME280;62245;48.070;7.874;2024-03-07T15:27:11;99075.97;;;9.56;76.00
73910;BME280;62245;48.070;7.874;2024-03-07T15:29:36;99078.63;;;9.49;75.19
73910;BME280;62245;48.070;7.874;2024-03-07T15:32:01;99073.88;;;9.38;75.26
73910;BME280;62245;48.070;7.874;2024-03-07T15:34:28;99078.81;;;9.41;75.21
73910;BME280;62245;48.070;7.874;2024-03-07T15:36:59;99082.06;;;9.43;76.12
73910;BME280;62245;48.070;7.874;2024-03-07T15:39:28;99064.47;;;9.42;75.62
73910;BME280;62245;48.070;7.874;2024-03-07T15:41:55;99066.72;;;9.38;76.37
73910;BME280;62245;48.070;7.874;2024-03-07T15:44:20;99065.47;;;9.34;75.77
73910;BME280;62245;48.070;7.874;2024-03-07T15:46:46;99068.13;;;9.34;76.53
73910;BME280;62245;48.070;7.874;2024-03-07T15:49:11;99064.03;;;9.32;75.91
73910;BME280;62245;48.070;7.874;2024-03-07T15:51:38;99064.84;;;9.32;75.76
73910;BME280;62245;48.070;7.874;2024-03-07T15:54:04;99062.19;;;9.32;76.14
73910;BME280;62245;48.070;7.874;2024-03-07T15:56:30;99053.38;;;9.32;76.08
73910;BME280;62245;48.070;7.874;2024-03-07T15:58:55;99048.84;;;9.26;76.63
73910;BME280;62245;48.070;7.874;2024-03-07T16:01:21;99052.97;;;9.28;75.88
73910;BME280;62245;48.070;7.874;2024-03-07T16:03:47;99054.59;;;9.23;76.06
73910;BME280;62245;48.070;7.874;2024-03-07T16:06:12;99055.59;;;9.22;76.03
73910;BME280;62245;48.070;7.874;2024-03-07T16:08:40;99055.22;;;9.25;76.67
73910;BME280;62245;48.070;7.874;2024-03-07T16:11:05;99057.25;;;9.23;77.27
73910;BME280;62245;48.070;7.874;2024-03-07T16:13:32;99052.56;;;9.25;76.93
73910;BME280;62245;48.070;7.874;2024-03-07T16:15:58;99055.00;;;9.26;77.98
73910;BME280;62245;48.070;7.874;2024-03-07T16:18:27;99058.28;;;9.35;78.51
73910;BME280;62245;48.070;7.874;2024-03-07T16:20:52;99053.19;;;9.33;77.49
73910;BME280;62245;48.070;7.874;2024-03-07T16:23:17;99054.63;;;9.36;75.68
73910;BME280;62245;48.070;7.874;2024-03-07T16:25:43;99057.47;;;9.34;74.85
73910;BME280;62245;48.070;7.874;2024-03-07T16:28:09;99052.75;;;9.30;74.61
73910;BME280;62245;48.070;7.874;2024-03-07T16:30:36;99058.69;;;9.25;74.84
73910;BME280;62245;48.070;7.874;2024-03-07T16:33:03;99050.50;;;9.27;73.70
73910;BME280;62245;48.070;7.874;2024-03-07T16:35:30;99055.63;;;9.28;74.24
73910;BME280;62245;48.070;7.874;2024-03-07T16:37:58;99047.22;;;9.25;74.78
73910;BME280;62245;48.070;7.874;2024-03-07T16:40:26;99050.50;;;9.27;75.63
73910;BME280;62245;48.070;7.874;2024-03-07T16:43:01;99048.84;;;9.26;75.52
73910;BME280;62245;48.070;7.874;2024-03-07T16:45:29;99053.38;;;9.25;73.23
73910;BME280;62245;48.070;7.874;2024-03-07T16:47:56;99053.13;;;9.14;69.45
73910;BME280;62245;48.070;7.874;2024-03-07T16:50:26;99053.75;;;9.16;68.39